KLPC/LPC METAR and TAF weather

Enter ICAO airport designator
Station Type Date Time Source
KLPC METAR 2024/07/23 16:56 UTC NOAA

KLPC 231656Z AUTO 22004KT 9SM CLR 21/14 A2992 RMK AO2 SLP133 T02060139


Station Type Date Time Source
KLPC Decoded METAR 2024/07/23 16:56 UTC NOAA

Lompoc, Lompoc Airport, CA, United States (KLPC) 34-40N 120-28W
Jul 23, 2024 - 12:56 PM EDT / 2024.07.23 1656 UTC
Wind: from the SW (220 degrees) at 5 MPH (4 KT):0
Visibility: 9 mile(s):0
Sky conditions: clear
Temperature: 69.1 F (20.6 C)
Dew Point: 57.0 F (13.9 C)
Relative Humidity: 65%
Pressure (altimeter): 29.92 in. Hg (1013 hPa)
ob: KLPC 231656Z AUTO 22004KT 9SM CLR 21/14 A2992 RMK AO2 SLP133 T02060139
cycle: 17

Station Type Date Time Source
KLPC TAF UTC NOAA

Error!

Example: see airport list